Capt. Ted — WDD6210 — position and weather

sailwx.info

Track history (hours):
 
Tides and Currents Weather Stations Pressure Air Temp Water Temp Dewpoint Dewpoint Depression Visibility Wind Speed Wind Dir Waves Ship Positions

Capt. Ted

Owner: Salisbury Towing Corporation, Havre de Grace, MD. More information available from US FCC via Universal Licensing System and Coast Guard Vessel Documentation Center.

Last reported at 2014-Oct-25 08:19 UTC. Time now 2014-Oct-25 16:06 UTC.
Position N 39°06' W 076°20'.

Length 32 m; draft 2.8 m.

Type: Tug. MMSI: 367169710.

Date/timePositionNaut miles runAvg speedWind from/ knotsBaromVisibWave heightAir tempDewpointWater temp
2014-Oct-25 08:19N 39°06' W 076°20'7 7.6
2014-Oct-25 07:28N 39°00' W 076°23'  
2014-Oct-21 22:33N 38°60' W 076°23'6 5.8
2014-Oct-21 21:26N 39°06' W 076°21'6 0.4
2014-Oct-21 06:33N 39°12' W 076°24'6 6.5
2014-Oct-21 05:33N 39°14' W 076°32'0 0.1
2014-Oct-21 04:33N 39°14' W 076°32'6 5.9
2014-Oct-21 03:33N 39°11' W 076°26'  
2014-Oct-17 23:33N 37°58' W 076°18'6 6.2
2014-Oct-17 22:33N 38°02' W 076°24'6 6.3
2014-Oct-17 21:33N 38°06' W 076°30'45 5.5
2014-Oct-17 13:26N 38°32' W 077°16'7 2.0
2014-Oct-17 10:05N 38°39' W 077°13'3 4.9
2014-Oct-17 09:32N 38°36' W 077°12'3 1.3
2014-Oct-17 07:12N 38°39' W 077°14'3 5.1
2014-Oct-17 06:32N 38°36' W 077°12'3 3.4
2014-Oct-17 05:33N 38°33' W 077°15'42 4.2
2014-Oct-16 19:31N 38°07' W 076°33'5 4.9
2014-Oct-16 18:33N 38°04' W 076°28'5 4.8
2014-Oct-16 17:32N 38°02' W 076°23'6 4.9
2014-Oct-16 16:20N 37°58' W 076°17'  
Track history (hours):
 
Tides and Currents Weather Stations Pressure Air Temp Water Temp Dewpoint Dewpoint Depression Visibility Wind Speed Wind Dir Waves Ship Positions

Capt. Ted

Owner: Salisbury Towing Corporation, Havre de Grace, MD. More information available from US FCC via Universal Licensing System and Coast Guard Vessel Documentation Center.

Last reported at 2014-Oct-25 08:19 UTC. Time now 2014-Oct-25 16:06 UTC.
Position N 39°06' W 076°20'.

Length 32 m; draft 2.8 m.

Type: Tug. MMSI: 367169710.

Date/timePositionNaut miles runAvg speedWind from/ knotsBaromVisibWave heightAir tempDewpointWater temp
2014-Oct-25 08:19N 39°06' W 076°20'7 7.6
2014-Oct-25 07:28N 39°00' W 076°23'  
2014-Oct-21 22:33N 38°60' W 076°23'6 5.8
2014-Oct-21 21:26N 39°06' W 076°21'6 0.4
2014-Oct-21 06:33N 39°12' W 076°24'6 6.5
2014-Oct-21 05:33N 39°14' W 076°32'0 0.1
2014-Oct-21 04:33N 39°14' W 076°32'6 5.9
2014-Oct-21 03:33N 39°11' W 076°26'  
2014-Oct-17 23:33N 37°58' W 076°18'6 6.2
2014-Oct-17 22:33N 38°02' W 076°24'6 6.3
2014-Oct-17 21:33N 38°06' W 076°30'45 5.5
2014-Oct-17 13:26N 38°32' W 077°16'7 2.0
2014-Oct-17 10:05N 38°39' W 077°13'3 4.9
2014-Oct-17 09:32N 38°36' W 077°12'3 1.3
2014-Oct-17 07:12N 38°39' W 077°14'3 5.1
2014-Oct-17 06:32N 38°36' W 077°12'3 3.4
2014-Oct-17 05:33N 38°33' W 077°15'42 4.2
2014-Oct-16 19:31N 38°07' W 076°33'5 4.9
2014-Oct-16 18:33N 38°04' W 076°28'5 4.8
2014-Oct-16 17:32N 38°02' W 076°23'6 4.9
2014-Oct-16 16:20N 37°58' W 076°17'  

Dump ship's entire track history